sensor_id;sensor_type;location;lat;lon;timestamp;P1;durP1;ratioP1;P2;durP2;ratioP2
65368;SDS011;51970;53.484;49.488;2023-05-16T00:00:48;14.63;;;7.00;;
65368;SDS011;51970;53.484;49.488;2023-05-16T00:03:22;11.85;;;6.13;;
65368;SDS011;51970;53.484;49.488;2023-05-16T00:05:54;11.77;;;7.13;;
65368;SDS011;51970;53.484;49.488;2023-05-16T00:10:56;10.23;;;6.32;;
65368;SDS011;51970;53.484;49.488;2023-05-16T00:16:00;10.52;;;6.03;;
65368;SDS011;51970;53.484;49.488;2023-05-16T00:18:32;9.73;;;5.50;;
65368;SDS011;51970;53.484;49.488;2023-05-16T00:21:07;11.43;;;5.88;;
65368;SDS011;51970;53.484;49.488;2023-05-16T00:23:38;12.98;;;7.20;;
65368;SDS011;51970;53.484;49.488;2023-05-16T00:26:09;10.30;;;5.57;;
65368;SDS011;51970;53.484;49.488;2023-05-16T00:28:41;10.35;;;6.20;;
65368;SDS011;51970;53.484;49.488;2023-05-16T00:31:12;11.55;;;5.50;;
65368;SDS011;51970;53.484;49.488;2023-05-16T00:36:15;11.30;;;6.10;;
65368;SDS011;51970;53.484;49.488;2023-05-16T00:38:46;9.15;;;6.07;;
65368;SDS011;51970;53.484;49.488;2023-05-16T00:41:17;11.05;;;5.78;;
65368;SDS011;51970;53.484;49.488;2023-05-16T00:43:49;12.02;;;5.82;;
65368;SDS011;51970;53.484;49.488;2023-05-16T00:46:20;13.23;;;7.15;;
65368;SDS011;51970;53.484;49.488;2023-05-16T00:48:51;10.25;;;5.93;;
65368;SDS011;51970;53.484;49.488;2023-05-16T00:51:23;9.20;;;5.85;;
65368;SDS011;51970;53.484;49.488;2023-05-16T00:53:54;10.45;;;6.40;;
65368;SDS011;51970;53.484;49.488;2023-05-16T00:56:27;11.10;;;6.63;;
65368;SDS011;51970;53.484;49.488;2023-05-16T00:58:58;10.70;;;6.75;;
65368;SDS011;51970;53.484;49.488;2023-05-16T01:01:30;10.43;;;6.25;;
65368;SDS011;51970;53.484;49.488;2023-05-16T01:04:02;12.43;;;6.75;;
65368;SDS011;51970;53.484;49.488;2023-05-16T01:06:34;11.40;;;8.18;;
65368;SDS011;51970;53.484;49.488;2023-05-16T01:09:06;23.00;;;6.53;;
65368;SDS011;51970;53.484;49.488;2023-05-16T01:11:42;15.00;;;6.68;;
65368;SDS011;51970;53.484;49.488;2023-05-16T01:20:02;19.20;;;6.85;;
65368;SDS011;51970;53.484;49.488;2023-05-16T01:25:35;11.82;;;6.30;;
65368;SDS011;51970;53.484;49.488;2023-05-16T01:28:16;14.77;;;7.15;;
65368;SDS011;51970;53.484;49.488;2023-05-16T01:30:49;17.52;;;7.15;;
65368;SDS011;51970;53.484;49.488;2023-05-16T01:33:21;14.40;;;6.65;;
65368;SDS011;51970;53.484;49.488;2023-05-16T01:44:20;12.25;;;6.32;;
65368;SDS011;51970;53.484;49.488;2023-05-16T01:46:57;10.73;;;6.15;;
65368;SDS011;51970;53.484;49.488;2023-05-16T01:49:40;11.00;;;6.97;;
65368;SDS011;51970;53.484;49.488;2023-05-16T01:52:39;13.48;;;7.60;;
65368;SDS011;51970;53.484;49.488;2023-05-16T01:55:17;10.80;;;6.07;;
65368;SDS011;51970;53.484;49.488;2023-05-16T01:57:58;14.20;;;6.55;;
65368;SDS011;51970;53.484;49.488;2023-05-16T02:00:31;14.60;;;7.40;;
65368;SDS011;51970;53.484;49.488;2023-05-16T02:03:03;12.90;;;7.28;;
65368;SDS011;51970;53.484;49.488;2023-05-16T02:05:34;10.52;;;5.97;;
65368;SDS011;51970;53.484;49.488;2023-05-16T02:08:06;12.20;;;6.75;;
65368;SDS011;51970;53.484;49.488;2023-05-16T02:10:38;11.93;;;6.18;;
65368;SDS011;51970;53.484;49.488;2023-05-16T02:13:11;15.75;;;6.85;;
65368;SDS011;51970;53.484;49.488;2023-05-16T02:15:42;12.48;;;6.15;;
65368;SDS011;51970;53.484;49.488;2023-05-16T02:18:13;12.23;;;7.32;;
65368;SDS011;51970;53.484;49.488;2023-05-16T02:20:44;12.10;;;7.22;;
65368;SDS011;51970;53.484;49.488;2023-05-16T02:23:16;14.15;;;8.02;;
65368;SDS011;51970;53.484;49.488;2023-05-16T02:25:47;12.95;;;5.72;;
65368;SDS011;51970;53.484;49.488;2023-05-16T02:28:18;11.07;;;7.10;;
65368;SDS011;51970;53.484;49.488;2023-05-16T02:30:56;11.32;;;7.03;;
65368;SDS011;51970;53.484;49.488;2023-05-16T02:33:29;11.40;;;5.95;;
65368;SDS011;51970;53.484;49.488;2023-05-16T02:36:00;11.50;;;6.60;;
65368;SDS011;51970;53.484;49.488;2023-05-16T02:38:31;10.63;;;6.45;;
65368;SDS011;51970;53.484;49.488;2023-05-16T02:41:03;13.60;;;6.50;;
65368;SDS011;51970;53.484;49.488;2023-05-16T02:43:34;12.98;;;6.78;;
65368;SDS011;51970;53.484;49.488;2023-05-16T02:46:25;9.38;;;5.90;;
65368;SDS011;51970;53.484;49.488;2023-05-16T02:48:57;10.93;;;6.38;;
65368;SDS011;51970;53.484;49.488;2023-05-16T02:51:28;10.88;;;7.20;;
65368;SDS011;51970;53.484;49.488;2023-05-16T02:54:00;14.60;;;6.90;;
65368;SDS011;51970;53.484;49.488;2023-05-16T02:56:32;10.27;;;6.72;;
65368;SDS011;51970;53.484;49.488;2023-05-16T02:59:03;11.35;;;6.60;;
65368;SDS011;51970;53.484;49.488;2023-05-16T03:04:06;12.27;;;6.63;;
65368;SDS011;51970;53.484;49.488;2023-05-16T03:06:38;12.07;;;6.70;;
65368;SDS011;51970;53.484;49.488;2023-05-16T03:09:10;13.85;;;6.68;;
65368;SDS011;51970;53.484;49.488;2023-05-16T03:11:41;12.88;;;8.10;;
65368;SDS011;51970;53.484;49.488;2023-05-16T03:14:13;17.05;;;7.45;;
65368;SDS011;51970;53.484;49.488;2023-05-16T03:16:44;11.15;;;7.35;;
65368;SDS011;51970;53.484;49.488;2023-05-16T03:19:15;11.18;;;7.30;;
65368;SDS011;51970;53.484;49.488;2023-05-16T03:21:51;11.75;;;6.88;;
65368;SDS011;51970;53.484;49.488;2023-05-16T03:24:22;13.45;;;7.22;;
65368;SDS011;51970;53.484;49.488;2023-05-16T03:26:54;11.07;;;6.80;;
65368;SDS011;51970;53.484;49.488;2023-05-16T03:29:29;11.35;;;7.45;;
65368;SDS011;51970;53.484;49.488;2023-05-16T03:32:01;11.27;;;6.72;;
65368;SDS011;51970;53.484;49.488;2023-05-16T03:34:34;11.95;;;7.38;;
65368;SDS011;51970;53.484;49.488;2023-05-16T03:37:08;12.32;;;7.95;;
65368;SDS011;51970;53.484;49.488;2023-05-16T03:39:40;14.25;;;8.40;;
65368;SDS011;51970;53.484;49.488;2023-05-16T03:42:15;12.65;;;6.93;;
65368;SDS011;51970;53.484;49.488;2023-05-16T03:44:48;11.88;;;7.10;;
65368;SDS011;51970;53.484;49.488;2023-05-16T03:47:20;11.35;;;6.88;;
65368;SDS011;51970;53.484;49.488;2023-05-16T03:49:53;13.40;;;8.15;;
65368;SDS011;51970;53.484;49.488;2023-05-16T03:52:25;12.15;;;8.05;;
65368;SDS011;51970;53.484;49.488;2023-05-16T03:54:58;15.48;;;7.45;;
65368;SDS011;51970;53.484;49.488;2023-05-16T03:57:33;12.35;;;8.65;;
65368;SDS011;51970;53.484;49.488;2023-05-16T04:00:26;18.27;;;9.90;;
65368;SDS011;51970;53.484;49.488;2023-05-16T04:02:57;12.52;;;8.05;;
65368;SDS011;51970;53.484;49.488;2023-05-16T04:05:29;16.23;;;8.57;;
65368;SDS011;51970;53.484;49.488;2023-05-16T04:08:07;16.40;;;8.32;;
65368;SDS011;51970;53.484;49.488;2023-05-16T04:10:42;17.40;;;8.15;;
65368;SDS011;51970;53.484;49.488;2023-05-16T04:13:14;12.95;;;8.27;;
65368;SDS011;51970;53.484;49.488;2023-05-16T04:15:51;13.70;;;8.38;;
65368;SDS011;51970;53.484;49.488;2023-05-16T04:18:25;16.30;;;8.93;;
65368;SDS011;51970;53.484;49.488;2023-05-16T04:20:57;14.77;;;8.25;;
65368;SDS011;51970;53.484;49.488;2023-05-16T04:23:29;18.25;;;9.05;;
65368;SDS011;51970;53.484;49.488;2023-05-16T04:26:02;13.05;;;9.07;;
65368;SDS011;51970;53.484;49.488;2023-05-16T04:28:39;14.20;;;7.10;;
65368;SDS011;51970;53.484;49.488;2023-05-16T04:32:01;12.85;;;8.13;;
65368;SDS011;51970;53.484;49.488;2023-05-16T04:34:56;14.32;;;7.85;;
65368;SDS011;51970;53.484;49.488;2023-05-16T04:38:22;16.77;;;7.93;;
65368;SDS011;51970;53.484;49.488;2023-05-16T04:40:54;16.83;;;8.55;;
65368;SDS011;51970;53.484;49.488;2023-05-16T04:43:21;13.55;;;8.45;;
65368;SDS011;51970;53.484;49.488;2023-05-16T04:45:47;13.25;;;7.63;;
65368;SDS011;51970;53.484;49.488;2023-05-16T04:48:14;14.25;;;8.73;;
65368;SDS011;51970;53.484;49.488;2023-05-16T04:51:40;16.60;;;9.10;;
65368;SDS011;51970;53.484;49.488;2023-05-16T05:03:24;17.92;;;8.68;;
65368;SDS011;51970;53.484;49.488;2023-05-16T05:06:13;15.13;;;9.23;;
65368;SDS011;51970;53.484;49.488;2023-05-16T05:08:59;16.55;;;8.88;;
65368;SDS011;51970;53.484;49.488;2023-05-16T05:11:52;13.68;;;8.30;;
65368;SDS011;51970;53.484;49.488;2023-05-16T05:15:23;14.27;;;8.45;;
65368;SDS011;51970;53.484;49.488;2023-05-16T05:18:39;14.38;;;9.05;;
65368;SDS011;51970;53.484;49.488;2023-05-16T05:21:21;15.95;;;8.65;;
65368;SDS011;51970;53.484;49.488;2023-05-16T05:23:50;16.02;;;9.85;;
65368;SDS011;51970;53.484;49.488;2023-05-16T05:26:27;16.13;;;9.90;;
65368;SDS011;51970;53.484;49.488;2023-05-16T05:29:07;17.33;;;10.38;;
65368;SDS011;51970;53.484;49.488;2023-05-16T05:31:46;17.67;;;10.38;;
65368;SDS011;51970;53.484;49.488;2023-05-16T05:34:18;16.15;;;8.13;;
65368;SDS011;51970;53.484;49.488;2023-05-16T05:36:55;15.70;;;9.82;;
65368;SDS011;51970;53.484;49.488;2023-05-16T05:39:34;16.13;;;9.18;;
65368;SDS011;51970;53.484;49.488;2023-05-16T05:42:30;14.85;;;10.48;;
65368;SDS011;51970;53.484;49.488;2023-05-16T05:45:02;15.90;;;9.65;;
65368;SDS011;51970;53.484;49.488;2023-05-16T05:47:34;21.67;;;11.27;;
65368;SDS011;51970;53.484;49.488;2023-05-16T05:50:45;16.40;;;9.95;;
65368;SDS011;51970;53.484;49.488;2023-05-16T05:53:21;16.17;;;10.85;;
65368;SDS011;51970;53.484;49.488;2023-05-16T05:55:47;19.70;;;11.40;;
65368;SDS011;51970;53.484;49.488;2023-05-16T05:58:28;15.43;;;10.75;;
65368;SDS011;51970;53.484;49.488;2023-05-16T06:01:28;22.48;;;12.77;;
65368;SDS011;51970;53.484;49.488;2023-05-16T06:04:09;15.38;;;11.15;;
65368;SDS011;51970;53.484;49.488;2023-05-16T06:08:12;15.30;;;10.73;;
65368;SDS011;51970;53.484;49.488;2023-05-16T06:11:21;22.90;;;11.35;;
65368;SDS011;51970;53.484;49.488;2023-05-16T06:14:38;17.25;;;11.60;;
65368;SDS011;51970;53.484;49.488;2023-05-16T06:17:26;18.65;;;12.55;;
65368;SDS011;51970;53.484;49.488;2023-05-16T06:20:24;17.58;;;10.73;;
65368;SDS011;51970;53.484;49.488;2023-05-16T06:23:26;19.63;;;12.43;;
65368;SDS011;51970;53.484;49.488;2023-05-16T06:26:17;25.33;;;13.60;;
65368;SDS011;51970;53.484;49.488;2023-05-16T06:40:23;18.10;;;10.65;;
65368;SDS011;51970;53.484;49.488;2023-05-16T06:44:11;18.95;;;12.10;;
65368;SDS011;51970;53.484;49.488;2023-05-16T06:47:23;19.45;;;12.65;;
65368;SDS011;51970;53.484;49.488;2023-05-16T06:50:38;17.55;;;10.88;;
65368;SDS011;51970;53.484;49.488;2023-05-16T07:18:57;22.30;;;13.30;;
65368;SDS011;51970;53.484;49.488;2023-05-16T07:26:10;22.50;;;13.40;;
65368;SDS011;51970;53.484;49.488;2023-05-16T07:36:34;23.48;;;16.70;;
65368;SDS011;51970;53.484;49.488;2023-05-16T07:43:48;24.48;;;16.38;;
65368;SDS011;51970;53.484;49.488;2023-05-16T07:50:49;27.35;;;17.33;;
65368;SDS011;51970;53.484;49.488;2023-05-16T07:53:55;30.98;;;15.98;;
65368;SDS011;51970;53.484;49.488;2023-05-16T08:00:13;30.92;;;17.20;;
65368;SDS011;51970;53.484;49.488;2023-05-16T08:03:30;29.45;;;19.48;;
65368;SDS011;51970;53.484;49.488;2023-05-16T08:06:59;32.08;;;18.80;;
65368;SDS011;51970;53.484;49.488;2023-05-16T08:09:57;29.98;;;18.08;;
65368;SDS011;51970;53.484;49.488;2023-05-16T08:20:05;29.80;;;20.08;;
65368;SDS011;51970;53.484;49.488;2023-05-16T08:37:29;32.30;;;20.25;;
65368;SDS011;51970;53.484;49.488;2023-05-16T08:40:05;30.38;;;19.40;;
65368;SDS011;51970;53.484;49.488;2023-05-16T08:43:20;30.00;;;19.42;;
65368;SDS011;51970;53.484;49.488;2023-05-16T08:46:15;41.60;;;19.35;;
65368;SDS011;51970;53.484;49.488;2023-05-16T08:49:00;33.05;;;21.38;;
65368;SDS011;51970;53.484;49.488;2023-05-16T08:51:56;33.42;;;21.58;;
65368;SDS011;51970;53.484;49.488;2023-05-16T08:55:08;28.00;;;19.20;;
65368;SDS011;51970;53.484;49.488;2023-05-16T09:05:42;30.00;;;20.10;;
65368;SDS011;51970;53.484;49.488;2023-05-16T09:53:15;29.58;;;21.42;;
65368;SDS011;51970;53.484;49.488;2023-05-16T09:56:48;31.38;;;20.13;;
65368;SDS011;51970;53.484;49.488;2023-05-16T09:59:41;32.55;;;20.60;;
65368;SDS011;51970;53.484;49.488;2023-05-16T10:02:49;26.65;;;18.15;;
65368;SDS011;51970;53.484;49.488;2023-05-16T10:09:16;28.52;;;18.55;;
65368;SDS011;51970;53.484;49.488;2023-05-16T10:12:55;27.23;;;15.25;;
65368;SDS011;51970;53.484;49.488;2023-05-16T10:16:22;23.83;;;16.25;;
65368;SDS011;51970;53.484;49.488;2023-05-16T10:20:12;21.88;;;15.25;;
65368;SDS011;51970;53.484;49.488;2023-05-16T10:26:32;22.50;;;15.30;;
65368;SDS011;51970;53.484;49.488;2023-05-16T10:29:39;21.02;;;13.63;;
65368;SDS011;51970;53.484;49.488;2023-05-16T10:33:24;25.88;;;16.02;;
65368;SDS011;51970;53.484;49.488;2023-05-16T10:36:40;31.15;;;15.70;;
65368;SDS011;51970;53.484;49.488;2023-05-16T10:46:06;30.00;;;17.23;;
65368;SDS011;51970;53.484;49.488;2023-05-16T10:48:36;38.30;;;18.98;;
65368;SDS011;51970;53.484;49.488;2023-05-16T11:04:44;30.02;;;18.00;;
65368;SDS011;51970;53.484;49.488;2023-05-16T11:08:05;30.35;;;19.30;;
65368;SDS011;51970;53.484;49.488;2023-05-16T11:11:43;29.63;;;18.27;;
65368;SDS011;51970;53.484;49.488;2023-05-16T11:14:48;28.77;;;17.70;;
65368;SDS011;51970;53.484;49.488;2023-05-16T11:18:20;23.73;;;15.23;;
65368;SDS011;51970;53.484;49.488;2023-05-16T11:22:12;26.65;;;17.52;;
65368;SDS011;51970;53.484;49.488;2023-05-16T12:12:03;27.83;;;18.80;;
65368;SDS011;51970;53.484;49.488;2023-05-16T12:22:17;26.55;;;17.02;;
65368;SDS011;51970;53.484;49.488;2023-05-16T12:47:34;33.30;;;22.55;;
65368;SDS011;51970;53.484;49.488;2023-05-16T12:54:34;33.50;;;20.15;;
65368;SDS011;51970;53.484;49.488;2023-05-16T13:17:07;28.23;;;15.27;;
65368;SDS011;51970;53.484;49.488;2023-05-16T13:19:38;22.45;;;14.52;;
65368;SDS011;51970;53.484;49.488;2023-05-16T13:23:10;24.20;;;14.27;;
65368;SDS011;51970;53.484;49.488;2023-05-16T13:26:09;23.63;;;13.02;;
65368;SDS011;51970;53.484;49.488;2023-05-16T13:29:39;21.13;;;12.30;;
65368;SDS011;51970;53.484;49.488;2023-05-16T13:32:51;20.65;;;13.05;;
65368;SDS011;51970;53.484;49.488;2023-05-16T13:36:36;20.38;;;12.60;;
65368;SDS011;51970;53.484;49.488;2023-05-16T13:40:25;21.80;;;11.50;;
65368;SDS011;51970;53.484;49.488;2023-05-16T13:52:29;17.80;;;11.77;;
65368;SDS011;51970;53.484;49.488;2023-05-16T13:55:01;18.35;;;10.98;;
65368;SDS011;51970;53.484;49.488;2023-05-16T13:58:46;22.35;;;12.32;;
65368;SDS011;51970;53.484;49.488;2023-05-16T14:02:54;21.02;;;12.35;;
65368;SDS011;51970;53.484;49.488;2023-05-16T14:06:52;20.27;;;12.63;;
65368;SDS011;51970;53.484;49.488;2023-05-16T14:18:19;24.00;;;14.02;;
65368;SDS011;51970;53.484;49.488;2023-05-16T14:31:54;22.70;;;14.48;;
65368;SDS011;51970;53.484;49.488;2023-05-16T14:39:35;24.90;;;16.30;;
65368;SDS011;51970;53.484;49.488;2023-05-16T14:43:16;25.60;;;15.75;;
65368;SDS011;51970;53.484;49.488;2023-05-16T14:53:26;27.90;;;18.60;;
65368;SDS011;51970;53.484;49.488;2023-05-16T15:04:00;25.52;;;16.23;;
65368;SDS011;51970;53.484;49.488;2023-05-16T15:14:32;25.73;;;16.10;;
65368;SDS011;51970;53.484;49.488;2023-05-16T15:21:17;23.10;;;14.98;;
65368;SDS011;51970;53.484;49.488;2023-05-16T15:38:42;24.40;;;15.80;;
65368;SDS011;51970;53.484;49.488;2023-05-16T15:42:20;23.90;;;16.95;;
65368;SDS011;51970;53.484;49.488;2023-05-16T16:40:22;34.75;;;18.95;;
65368;SDS011;51970;53.484;49.488;2023-05-16T17:12:12;27.60;;;18.33;;
65368;SDS011;51970;53.484;49.488;2023-05-16T17:23:56;32.78;;;18.73;;
65368;SDS011;51970;53.484;49.488;2023-05-16T17:28:29;29.50;;;20.25;;
65368;SDS011;51970;53.484;49.488;2023-05-16T17:31:51;36.78;;;21.48;;
65368;SDS011;51970;53.484;49.488;2023-05-16T17:40:09;36.45;;;21.08;;
65368;SDS011;51970;53.484;49.488;2023-05-16T17:48:36;32.33;;;19.17;;
65368;SDS011;51970;53.484;49.488;2023-05-16T17:59:49;29.70;;;17.67;;
65368;SDS011;51970;53.484;49.488;2023-05-16T18:03:56;34.67;;;19.17;;
65368;SDS011;51970;53.484;49.488;2023-05-16T18:08:05;26.27;;;16.83;;
65368;SDS011;51970;53.484;49.488;2023-05-16T18:15:50;31.63;;;17.88;;
65368;SDS011;51970;53.484;49.488;2023-05-16T18:19:12;31.52;;;18.00;;
65368;SDS011;51970;53.484;49.488;2023-05-16T18:23:00;26.88;;;16.23;;
65368;SDS011;51970;53.484;49.488;2023-05-16T18:27:04;25.20;;;17.52;;
65368;SDS011;51970;53.484;49.488;2023-05-16T18:31:01;30.05;;;20.05;;
65368;SDS011;51970;53.484;49.488;2023-05-16T18:34:17;29.35;;;18.52;;
65368;SDS011;51970;53.484;49.488;2023-05-16T18:37:31;26.90;;;18.80;;
65368;SDS011;51970;53.484;49.488;2023-05-16T18:41:56;24.00;;;16.02;;
65368;SDS011;51970;53.484;49.488;2023-05-16T18:45:55;25.48;;;17.10;;
65368;SDS011;51970;53.484;49.488;2023-05-16T18:49:37;29.30;;;16.00;;
65368;SDS011;51970;53.484;49.488;2023-05-16T19:24:51;29.27;;;17.08;;
65368;SDS011;51970;53.484;49.488;2023-05-16T19:37:24;27.08;;;17.60;;
65368;SDS011;51970;53.484;49.488;2023-05-16T19:41:24;28.08;;;16.52;;
65368;SDS011;51970;53.484;49.488;2023-05-16T19:45:22;30.65;;;17.05;;
65368;SDS011;51970;53.484;49.488;2023-05-16T19:53:32;29.90;;;15.70;;
65368;SDS011;51970;53.484;49.488;2023-05-16T19:57:30;32.63;;;16.55;;
65368;SDS011;51970;53.484;49.488;2023-05-16T20:08:52;24.40;;;15.93;;
65368;SDS011;51970;53.484;49.488;2023-05-16T20:21:20;26.77;;;16.48;;
65368;SDS011;51970;53.484;49.488;2023-05-16T20:25:23;28.42;;;16.27;;
65368;SDS011;51970;53.484;49.488;2023-05-16T20:29:34;27.55;;;16.02;;
65368;SDS011;51970;53.484;49.488;2023-05-16T20:33:27;28.27;;;17.90;;
65368;SDS011;51970;53.484;49.488;2023-05-16T20:42:15;30.38;;;17.05;;
65368;SDS011;51970;53.484;49.488;2023-05-16T20:46:29;29.60;;;16.98;;
65368;SDS011;51970;53.484;49.488;2023-05-16T20:50:22;28.70;;;16.70;;
65368;SDS011;51970;53.484;49.488;2023-05-16T20:54:24;26.05;;;17.13;;
65368;SDS011;51970;53.484;49.488;2023-05-16T20:58:20;25.33;;;17.55;;
65368;SDS011;51970;53.484;49.488;2023-05-16T21:02:17;34.20;;;17.02;;
65368;SDS011;51970;53.484;49.488;2023-05-16T21:05:43;45.17;;;26.80;;
65368;SDS011;51970;53.484;49.488;2023-05-16T21:09:36;48.08;;;26.58;;
65368;SDS011;51970;53.484;49.488;2023-05-16T21:30:00;29.17;;;19.58;;
65368;SDS011;51970;53.484;49.488;2023-05-16T21:33:59;33.55;;;19.50;;
65368;SDS011;51970;53.484;49.488;2023-05-16T21:41:03;30.63;;;20.23;;
65368;SDS011;51970;53.484;49.488;2023-05-16T21:45:20;30.33;;;18.00;;
65368;SDS011;51970;53.484;49.488;2023-05-16T21:57:25;29.98;;;18.42;;
65368;SDS011;51970;53.484;49.488;2023-05-16T22:00:47;43.53;;;22.77;;
65368;SDS011;51970;53.484;49.488;2023-05-16T22:09:05;29.33;;;16.10;;
65368;SDS011;51970;53.484;49.488;2023-05-16T22:16:51;27.33;;;15.63;;
65368;SDS011;51970;53.484;49.488;2023-05-16T22:21:07;27.88;;;17.52;;
65368;SDS011;51970;53.484;49.488;2023-05-16T22:25:02;24.92;;;13.48;;
65368;SDS011;51970;53.484;49.488;2023-05-16T22:29:09;20.65;;;13.30;;
65368;SDS011;51970;53.484;49.488;2023-05-16T22:33:23;23.00;;;13.20;;
65368;SDS011;51970;53.484;49.488;2023-05-16T22:36:30;24.02;;;14.70;;
65368;SDS011;51970;53.484;49.488;2023-05-16T22:38:56;22.65;;;13.93;;
65368;SDS011;51970;53.484;49.488;2023-05-16T22:42:33;23.60;;;14.15;;
65368;SDS011;51970;53.484;49.488;2023-05-16T22:46:21;23.83;;;12.85;;
65368;SDS011;51970;53.484;49.488;2023-05-16T22:48:47;24.55;;;14.60;;
65368;SDS011;51970;53.484;49.488;2023-05-16T22:51:13;22.00;;;13.43;;
65368;SDS011;51970;53.484;49.488;2023-05-16T22:53:41;22.67;;;14.52;;
65368;SDS011;51970;53.484;49.488;2023-05-16T22:56:08;21.60;;;13.52;;
65368;SDS011;51970;53.484;49.488;2023-05-16T22:58:35;21.35;;;13.63;;
65368;SDS011;51970;53.484;49.488;2023-05-16T23:02:06;25.73;;;13.73;;
65368;SDS011;51970;53.484;49.488;2023-05-16T23:04:32;21.88;;;13.52;;
65368;SDS011;51970;53.484;49.488;2023-05-16T23:07:20;22.55;;;12.43;;
65368;SDS011;51970;53.484;49.488;2023-05-16T23:09:46;21.10;;;12.38;;
65368;SDS011;51970;53.484;49.488;2023-05-16T23:13:54;26.40;;;14.13;;
65368;SDS011;51970;53.484;49.488;2023-05-16T23:17:21;24.00;;;14.40;;
65368;SDS011;51970;53.484;49.488;2023-05-16T23:20:36;24.80;;;14.63;;
65368;SDS011;51970;53.484;49.488;2023-05-16T23:23:05;23.42;;;15.35;;
65368;SDS011;51970;53.484;49.488;2023-05-16T23:25:31;22.25;;;13.65;;
65368;SDS011;51970;53.484;49.488;2023-05-16T23:27:58;29.20;;;14.90;;
65368;SDS011;51970;53.484;49.488;2023-05-16T23:31:55;23.90;;;13.77;;
65368;SDS011;51970;53.484;49.488;2023-05-16T23:36:02;25.77;;;14.20;;
65368;SDS011;51970;53.484;49.488;2023-05-16T23:39:12;29.95;;;14.70;;
65368;SDS011;51970;53.484;49.488;2023-05-16T23:43:19;25.02;;;14.25;;
65368;SDS011;51970;53.484;49.488;2023-05-16T23:47:15;25.58;;;13.32;;
65368;SDS011;51970;53.484;49.488;2023-05-16T23:49:41;27.30;;;15.13;;
65368;SDS011;51970;53.484;49.488;2023-05-16T23:52:10;28.42;;;14.43;;
65368;SDS011;51970;53.484;49.488;2023-05-16T23:54:56;22.63;;;15.10;;
65368;SDS011;51970;53.484;49.488;2023-05-16T23:57:25;26.42;;;15.63;;
